sensor_id;sensor_type;location;lat;lon;timestamp;P1;durP1;ratioP1;P2;durP2;ratioP2
37051;SDS011;22964;52.272;13.356;2023-02-22T00:00:36;11.20;;;2.35;;
37051;SDS011;22964;52.272;13.356;2023-02-22T00:03:16;12.52;;;2.55;;
37051;SDS011;22964;52.272;13.356;2023-02-22T00:05:52;8.18;;;1.90;;
37051;SDS011;22964;52.272;13.356;2023-02-22T00:08:28;9.95;;;2.22;;
37051;SDS011;22964;52.272;13.356;2023-02-22T00:11:00;14.35;;;2.63;;
37051;SDS011;22964;52.272;13.356;2023-02-22T00:13:28;13.20;;;2.45;;
37051;SDS011;22964;52.272;13.356;2023-02-22T00:15:54;8.77;;;2.00;;
37051;SDS011;22964;52.272;13.356;2023-02-22T00:18:20;9.70;;;2.15;;
37051;SDS011;22964;52.272;13.356;2023-02-22T00:20:46;11.70;;;2.38;;
37051;SDS011;22964;52.272;13.356;2023-02-22T00:23:13;13.35;;;2.42;;
37051;SDS011;22964;52.272;13.356;2023-02-22T00:25:45;14.65;;;2.67;;
37051;SDS011;22964;52.272;13.356;2023-02-22T00:28:16;12.32;;;2.38;;
37051;SDS011;22964;52.272;13.356;2023-02-22T00:30:43;10.25;;;2.17;;
37051;SDS011;22964;52.272;13.356;2023-02-22T00:33:13;16.48;;;2.15;;
37051;SDS011;22964;52.272;13.356;2023-02-22T00:35:39;10.85;;;2.28;;
37051;SDS011;22964;52.272;13.356;2023-02-22T00:38:06;11.88;;;2.60;;
37051;SDS011;22964;52.272;13.356;2023-02-22T00:40:32;10.98;;;2.65;;
37051;SDS011;22964;52.272;13.356;2023-02-22T00:43:00;8.52;;;2.00;;
37051;SDS011;22964;52.272;13.356;2023-02-22T00:45:28;12.60;;;2.30;;
37051;SDS011;22964;52.272;13.356;2023-02-22T00:47:55;11.15;;;2.38;;
37051;SDS011;22964;52.272;13.356;2023-02-22T00:50:22;10.68;;;2.53;;
37051;SDS011;22964;52.272;13.356;2023-02-22T00:52:49;9.05;;;2.60;;
37051;SDS011;22964;52.272;13.356;2023-02-22T00:55:17;12.80;;;2.00;;
37051;SDS011;22964;52.272;13.356;2023-02-22T00:57:48;13.20;;;2.30;;
37051;SDS011;22964;52.272;13.356;2023-02-22T01:00:19;11.43;;;2.17;;
37051;SDS011;22964;52.272;13.356;2023-02-22T01:02:46;15.68;;;2.03;;
37051;SDS011;22964;52.272;13.356;2023-02-22T01:05:16;11.98;;;2.30;;
37051;SDS011;22964;52.272;13.356;2023-02-22T01:07:45;16.05;;;2.65;;
37051;SDS011;22964;52.272;13.356;2023-02-22T01:10:14;15.30;;;2.85;;
37051;SDS011;22964;52.272;13.356;2023-02-22T01:12:41;12.02;;;2.80;;
37051;SDS011;22964;52.272;13.356;2023-02-22T01:15:07;14.02;;;3.03;;
37051;SDS011;22964;52.272;13.356;2023-02-22T01:17:35;11.68;;;2.45;;
37051;SDS011;22964;52.272;13.356;2023-02-22T01:20:03;10.95;;;2.30;;
37051;SDS011;22964;52.272;13.356;2023-02-22T01:22:39;13.45;;;2.20;;
37051;SDS011;22964;52.272;13.356;2023-02-22T01:25:09;10.13;;;2.25;;
37051;SDS011;22964;52.272;13.356;2023-02-22T01:27:37;13.73;;;2.70;;
37051;SDS011;22964;52.272;13.356;2023-02-22T01:30:04;10.52;;;2.30;;
37051;SDS011;22964;52.272;13.356;2023-02-22T01:32:37;9.93;;;2.30;;
37051;SDS011;22964;52.272;13.356;2023-02-22T01:35:05;8.95;;;2.00;;
37051;SDS011;22964;52.272;13.356;2023-02-22T01:37:33;11.32;;;2.10;;
37051;SDS011;22964;52.272;13.356;2023-02-22T01:40:02;10.27;;;1.98;;
37051;SDS011;22964;52.272;13.356;2023-02-22T01:42:31;10.05;;;2.13;;
37051;SDS011;22964;52.272;13.356;2023-02-22T01:47:55;7.75;;;1.70;;
37051;SDS011;22964;52.272;13.356;2023-02-22T01:50:26;13.55;;;2.53;;
37051;SDS011;22964;52.272;13.356;2023-02-22T01:52:52;11.07;;;1.92;;
37051;SDS011;22964;52.272;13.356;2023-02-22T01:55:17;8.45;;;1.70;;
37051;SDS011;22964;52.272;13.356;2023-02-22T01:57:44;10.35;;;2.25;;
37051;SDS011;22964;52.272;13.356;2023-02-22T02:00:12;7.03;;;1.63;;
37051;SDS011;22964;52.272;13.356;2023-02-22T02:02:42;9.73;;;1.90;;
37051;SDS011;22964;52.272;13.356;2023-02-22T02:05:11;9.18;;;1.70;;
37051;SDS011;22964;52.272;13.356;2023-02-22T02:07:37;7.78;;;1.75;;
37051;SDS011;22964;52.272;13.356;2023-02-22T02:10:08;6.25;;;1.77;;
37051;SDS011;22964;52.272;13.356;2023-02-22T02:12:39;8.13;;;1.83;;
37051;SDS011;22964;52.272;13.356;2023-02-22T02:18:05;11.13;;;1.80;;
37051;SDS011;22964;52.272;13.356;2023-02-22T02:28:52;5.90;;;1.30;;
37051;SDS011;22964;52.272;13.356;2023-02-22T02:37:01;8.02;;;1.80;;
37051;SDS011;22964;52.272;13.356;2023-02-22T02:42:21;8.70;;;1.42;;
37051;SDS011;22964;52.272;13.356;2023-02-22T02:44:57;6.45;;;1.48;;
37051;SDS011;22964;52.272;13.356;2023-02-22T02:47:36;7.20;;;1.25;;
37051;SDS011;22964;52.272;13.356;2023-02-22T02:50:19;7.50;;;1.35;;
37051;SDS011;22964;52.272;13.356;2023-02-22T02:52:52;9.48;;;2.17;;
37051;SDS011;22964;52.272;13.356;2023-02-22T02:55:20;8.57;;;1.80;;
37051;SDS011;22964;52.272;13.356;2023-02-22T02:57:47;10.05;;;1.80;;
37051;SDS011;22964;52.272;13.356;2023-02-22T03:00:14;5.75;;;1.73;;
37051;SDS011;22964;52.272;13.356;2023-02-22T03:02:53;10.57;;;2.20;;
37051;SDS011;22964;52.272;13.356;2023-02-22T03:10:29;7.28;;;1.67;;
37051;SDS011;22964;52.272;13.356;2023-02-22T03:18:28;6.25;;;1.58;;
37051;SDS011;22964;52.272;13.356;2023-02-22T03:23:34;11.95;;;2.00;;
37051;SDS011;22964;52.272;13.356;2023-02-22T03:26:15;7.57;;;1.70;;
37051;SDS011;22964;52.272;13.356;2023-02-22T03:28:51;6.00;;;1.45;;
37051;SDS011;22964;52.272;13.356;2023-02-22T03:31:27;7.10;;;1.70;;
37051;SDS011;22964;52.272;13.356;2023-02-22T03:33:58;9.55;;;1.75;;
37051;SDS011;22964;52.272;13.356;2023-02-22T03:36:32;7.95;;;1.75;;
37051;SDS011;22964;52.272;13.356;2023-02-22T03:39:03;9.80;;;1.80;;
37051;SDS011;22964;52.272;13.356;2023-02-22T03:41:33;9.80;;;2.30;;
37051;SDS011;22964;52.272;13.356;2023-02-22T03:44:04;9.32;;;2.00;;
37051;SDS011;22964;52.272;13.356;2023-02-22T03:46:40;12.77;;;2.30;;
37051;SDS011;22964;52.272;13.356;2023-02-22T03:49:10;9.57;;;2.00;;
37051;SDS011;22964;52.272;13.356;2023-02-22T03:51:42;6.95;;;1.80;;
37051;SDS011;22964;52.272;13.356;2023-02-22T03:54:11;9.90;;;1.77;;
37051;SDS011;22964;52.272;13.356;2023-02-22T03:56:43;6.28;;;1.60;;
37051;SDS011;22964;52.272;13.356;2023-02-22T03:59:18;6.07;;;2.10;;
37051;SDS011;22964;52.272;13.356;2023-02-22T04:01:49;5.03;;;1.50;;
37051;SDS011;22964;52.272;13.356;2023-02-22T04:04:15;9.70;;;1.52;;
37051;SDS011;22964;52.272;13.356;2023-02-22T04:06:43;9.43;;;1.58;;
37051;SDS011;22964;52.272;13.356;2023-02-22T04:09:10;9.35;;;2.25;;
37051;SDS011;22964;52.272;13.356;2023-02-22T04:11:36;6.78;;;1.70;;
37051;SDS011;22964;52.272;13.356;2023-02-22T04:14:02;10.98;;;2.20;;
37051;SDS011;22964;52.272;13.356;2023-02-22T04:16:28;8.70;;;2.10;;
37051;SDS011;22964;52.272;13.356;2023-02-22T04:18:54;7.43;;;1.73;;
37051;SDS011;22964;52.272;13.356;2023-02-22T04:21:19;7.60;;;1.80;;
37051;SDS011;22964;52.272;13.356;2023-02-22T04:23:48;7.72;;;1.83;;
37051;SDS011;22964;52.272;13.356;2023-02-22T04:26:14;8.07;;;2.10;;
37051;SDS011;22964;52.272;13.356;2023-02-22T04:28:43;6.45;;;1.50;;
37051;SDS011;22964;52.272;13.356;2023-02-22T04:31:13;9.48;;;1.85;;
37051;SDS011;22964;52.272;13.356;2023-02-22T04:33:39;9.63;;;2.20;;
37051;SDS011;22964;52.272;13.356;2023-02-22T04:36:07;10.82;;;1.95;;
37051;SDS011;22964;52.272;13.356;2023-02-22T04:38:36;11.23;;;1.80;;
37051;SDS011;22964;52.272;13.356;2023-02-22T04:41:02;11.80;;;2.20;;
37051;SDS011;22964;52.272;13.356;2023-02-22T04:43:28;4.22;;;1.77;;
37051;SDS011;22964;52.272;13.356;2023-02-22T04:46:23;6.80;;;1.80;;
37051;SDS011;22964;52.272;13.356;2023-02-22T04:48:50;9.80;;;2.00;;
37051;SDS011;22964;52.272;13.356;2023-02-22T04:51:20;6.85;;;1.60;;
37051;SDS011;22964;52.272;13.356;2023-02-22T04:53:56;6.28;;;1.50;;
37051;SDS011;22964;52.272;13.356;2023-02-22T04:56:23;7.65;;;1.50;;
37051;SDS011;22964;52.272;13.356;2023-02-22T04:58:48;9.13;;;1.60;;
37051;SDS011;22964;52.272;13.356;2023-02-22T05:01:15;7.65;;;1.50;;
37051;SDS011;22964;52.272;13.356;2023-02-22T05:03:41;7.82;;;1.70;;
37051;SDS011;22964;52.272;13.356;2023-02-22T05:06:07;4.40;;;1.30;;
37051;SDS011;22964;52.272;13.356;2023-02-22T05:08:33;8.27;;;1.50;;
37051;SDS011;22964;52.272;13.356;2023-02-22T05:10:59;9.70;;;2.00;;
37051;SDS011;22964;52.272;13.356;2023-02-22T05:13:24;7.50;;;1.88;;
37051;SDS011;22964;52.272;13.356;2023-02-22T05:15:50;6.90;;;2.08;;
37051;SDS011;22964;52.272;13.356;2023-02-22T05:18:16;7.97;;;1.48;;
37051;SDS011;22964;52.272;13.356;2023-02-22T05:20:42;7.63;;;1.70;;
37051;SDS011;22964;52.272;13.356;2023-02-22T05:23:07;8.38;;;1.70;;
37051;SDS011;22964;52.272;13.356;2023-02-22T05:25:34;6.07;;;1.50;;
37051;SDS011;22964;52.272;13.356;2023-02-22T05:28:04;6.25;;;1.50;;
37051;SDS011;22964;52.272;13.356;2023-02-22T05:30:33;8.80;;;1.80;;
37051;SDS011;22964;52.272;13.356;2023-02-22T05:32:59;9.25;;;1.80;;
37051;SDS011;22964;52.272;13.356;2023-02-22T05:35:26;6.00;;;1.60;;
37051;SDS011;22964;52.272;13.356;2023-02-22T05:37:53;6.28;;;1.63;;
37051;SDS011;22964;52.272;13.356;2023-02-22T05:40:19;5.72;;;1.80;;
37051;SDS011;22964;52.272;13.356;2023-02-22T05:42:47;7.35;;;1.80;;
37051;SDS011;22964;52.272;13.356;2023-02-22T05:45:14;8.10;;;1.90;;
37051;SDS011;22964;52.272;13.356;2023-02-22T05:47:40;9.85;;;1.90;;
37051;SDS011;22964;52.272;13.356;2023-02-22T05:50:07;7.70;;;1.50;;
37051;SDS011;22964;52.272;13.356;2023-02-22T05:52:33;6.65;;;1.52;;
37051;SDS011;22964;52.272;13.356;2023-02-22T05:54:58;7.25;;;1.80;;
37051;SDS011;22964;52.272;13.356;2023-02-22T05:57:24;9.43;;;1.80;;
37051;SDS011;22964;52.272;13.356;2023-02-22T05:59:50;7.45;;;1.70;;
37051;SDS011;22964;52.272;13.356;2023-02-22T06:02:15;9.40;;;1.90;;
37051;SDS011;22964;52.272;13.356;2023-02-22T06:04:45;10.05;;;2.08;;
37051;SDS011;22964;52.272;13.356;2023-02-22T06:07:11;8.70;;;2.05;;
37051;SDS011;22964;52.272;13.356;2023-02-22T06:09:38;9.23;;;2.28;;
37051;SDS011;22964;52.272;13.356;2023-02-22T06:12:04;10.43;;;2.00;;
37051;SDS011;22964;52.272;13.356;2023-02-22T06:14:30;18.30;;;2.50;;
37051;SDS011;22964;52.272;13.356;2023-02-22T06:16:56;11.05;;;2.40;;
37051;SDS011;22964;52.272;13.356;2023-02-22T06:19:23;10.07;;;2.33;;
37051;SDS011;22964;52.272;13.356;2023-02-22T06:21:50;9.98;;;2.10;;
37051;SDS011;22964;52.272;13.356;2023-02-22T06:24:16;13.27;;;2.35;;
37051;SDS011;22964;52.272;13.356;2023-02-22T06:26:42;9.55;;;2.65;;
37051;SDS011;22964;52.272;13.356;2023-02-22T06:29:08;11.15;;;2.28;;
37051;SDS011;22964;52.272;13.356;2023-02-22T06:31:34;6.85;;;1.92;;
37051;SDS011;22964;52.272;13.356;2023-02-22T06:34:01;5.75;;;2.10;;
37051;SDS011;22964;52.272;13.356;2023-02-22T06:36:27;8.73;;;2.00;;
37051;SDS011;22964;52.272;13.356;2023-02-22T06:38:56;9.18;;;2.13;;
37051;SDS011;22964;52.272;13.356;2023-02-22T06:41:22;8.50;;;2.10;;
37051;SDS011;22964;52.272;13.356;2023-02-22T06:43:48;12.23;;;2.25;;
37051;SDS011;22964;52.272;13.356;2023-02-22T06:46:14;7.75;;;2.05;;
37051;SDS011;22964;52.272;13.356;2023-02-22T06:48:40;13.68;;;2.78;;
37051;SDS011;22964;52.272;13.356;2023-02-22T06:51:09;11.45;;;2.17;;
37051;SDS011;22964;52.272;13.356;2023-02-22T06:53:35;6.78;;;2.05;;
37051;SDS011;22964;52.272;13.356;2023-02-22T06:56:00;9.95;;;2.70;;
37051;SDS011;22964;52.272;13.356;2023-02-22T06:58:27;9.43;;;2.20;;
37051;SDS011;22964;52.272;13.356;2023-02-22T07:00:53;9.18;;;2.35;;
37051;SDS011;22964;52.272;13.356;2023-02-22T07:03:19;12.40;;;2.40;;
37051;SDS011;22964;52.272;13.356;2023-02-22T07:05:45;8.63;;;2.10;;
37051;SDS011;22964;52.272;13.356;2023-02-22T07:08:11;12.55;;;3.10;;
37051;SDS011;22964;52.272;13.356;2023-02-22T07:10:38;15.57;;;2.88;;
37051;SDS011;22964;52.272;13.356;2023-02-22T07:13:05;5.90;;;2.15;;
37051;SDS011;22964;52.272;13.356;2023-02-22T07:15:33;12.70;;;2.58;;
37051;SDS011;22964;52.272;13.356;2023-02-22T07:17:59;13.75;;;3.60;;
37051;SDS011;22964;52.272;13.356;2023-02-22T07:20:26;12.02;;;2.97;;
37051;SDS011;22964;52.272;13.356;2023-02-22T07:22:53;10.85;;;3.22;;
37051;SDS011;22964;52.272;13.356;2023-02-22T07:25:18;11.32;;;2.88;;
37051;SDS011;22964;52.272;13.356;2023-02-22T07:27:45;12.38;;;3.47;;
37051;SDS011;22964;52.272;13.356;2023-02-22T07:30:16;16.45;;;3.40;;
37051;SDS011;22964;52.272;13.356;2023-02-22T07:32:42;17.75;;;4.15;;
37051;SDS011;22964;52.272;13.356;2023-02-22T07:35:13;14.63;;;3.65;;
37051;SDS011;22964;52.272;13.356;2023-02-22T07:37:43;11.73;;;3.35;;
37051;SDS011;22964;52.272;13.356;2023-02-22T07:40:10;15.13;;;3.60;;
37051;SDS011;22964;52.272;13.356;2023-02-22T07:45:35;10.50;;;3.33;;
37051;SDS011;22964;52.272;13.356;2023-02-22T07:48:03;11.27;;;3.10;;
37051;SDS011;22964;52.272;13.356;2023-02-22T07:50:30;15.25;;;3.30;;
37051;SDS011;22964;52.272;13.356;2023-02-22T07:52:58;12.27;;;3.65;;
37051;SDS011;22964;52.272;13.356;2023-02-22T07:55:26;11.35;;;3.00;;
37051;SDS011;22964;52.272;13.356;2023-02-22T07:57:54;14.23;;;3.60;;
37051;SDS011;22964;52.272;13.356;2023-02-22T08:00:23;16.70;;;3.40;;
37051;SDS011;22964;52.272;13.356;2023-02-22T08:02:51;12.65;;;3.15;;
37051;SDS011;22964;52.272;13.356;2023-02-22T08:05:18;14.88;;;3.88;;
37051;SDS011;22964;52.272;13.356;2023-02-22T08:07:45;14.02;;;3.55;;
37051;SDS011;22964;52.272;13.356;2023-02-22T08:10:12;15.30;;;3.58;;
37051;SDS011;22964;52.272;13.356;2023-02-22T08:12:38;15.15;;;3.78;;
37051;SDS011;22964;52.272;13.356;2023-02-22T08:15:05;12.40;;;2.85;;
37051;SDS011;22964;52.272;13.356;2023-02-22T08:17:32;13.98;;;3.20;;
37051;SDS011;22964;52.272;13.356;2023-02-22T08:19:58;11.10;;;3.00;;
37051;SDS011;22964;52.272;13.356;2023-02-22T08:22:24;14.32;;;3.00;;
37051;SDS011;22964;52.272;13.356;2023-02-22T08:24:51;14.65;;;2.90;;
37051;SDS011;22964;52.272;13.356;2023-02-22T08:27:22;17.45;;;3.75;;
37051;SDS011;22964;52.272;13.356;2023-02-22T08:29:52;9.55;;;2.50;;
37051;SDS011;22964;52.272;13.356;2023-02-22T08:32:19;15.10;;;3.50;;
37051;SDS011;22964;52.272;13.356;2023-02-22T08:34:45;12.48;;;2.88;;
37051;SDS011;22964;52.272;13.356;2023-02-22T08:37:11;13.85;;;3.15;;
37051;SDS011;22964;52.272;13.356;2023-02-22T08:39:38;11.02;;;2.88;;
37051;SDS011;22964;52.272;13.356;2023-02-22T08:42:04;15.88;;;3.05;;
37051;SDS011;22964;52.272;13.356;2023-02-22T08:44:29;14.02;;;2.80;;
37051;SDS011;22964;52.272;13.356;2023-02-22T08:46:55;16.08;;;2.97;;
37051;SDS011;22964;52.272;13.356;2023-02-22T08:49:22;14.20;;;2.85;;
37051;SDS011;22964;52.272;13.356;2023-02-22T08:51:48;10.88;;;2.63;;
37051;SDS011;22964;52.272;13.356;2023-02-22T08:54:14;17.70;;;3.33;;
37051;SDS011;22964;52.272;13.356;2023-02-22T08:56:39;14.13;;;2.92;;
37051;SDS011;22964;52.272;13.356;2023-02-22T08:59:05;9.70;;;2.75;;
37051;SDS011;22964;52.272;13.356;2023-02-22T09:01:31;14.80;;;2.90;;
37051;SDS011;22964;52.272;13.356;2023-02-22T09:03:58;14.80;;;3.33;;
37051;SDS011;22964;52.272;13.356;2023-02-22T09:06:24;11.05;;;2.88;;
37051;SDS011;22964;52.272;13.356;2023-02-22T09:08:50;12.68;;;2.78;;
37051;SDS011;22964;52.272;13.356;2023-02-22T09:11:16;11.45;;;2.97;;
37051;SDS011;22964;52.272;13.356;2023-02-22T09:13:42;9.63;;;3.38;;
37051;SDS011;22964;52.272;13.356;2023-02-22T09:16:08;17.58;;;3.35;;
37051;SDS011;22964;52.272;13.356;2023-02-22T09:18:34;13.57;;;3.22;;
37051;SDS011;22964;52.272;13.356;2023-02-22T09:21:01;14.77;;;3.65;;
37051;SDS011;22964;52.272;13.356;2023-02-22T09:23:27;13.85;;;3.17;;
37051;SDS011;22964;52.272;13.356;2023-02-22T09:25:53;16.48;;;3.97;;
37051;SDS011;22964;52.272;13.356;2023-02-22T09:28:19;20.55;;;3.20;;
37051;SDS011;22964;52.272;13.356;2023-02-22T09:30:45;14.18;;;2.88;;
37051;SDS011;22964;52.272;13.356;2023-02-22T09:33:15;17.98;;;3.20;;
37051;SDS011;22964;52.272;13.356;2023-02-22T09:35:43;15.50;;;4.05;;
37051;SDS011;22964;52.272;13.356;2023-02-22T09:38:11;10.57;;;3.53;;
37051;SDS011;22964;52.272;13.356;2023-02-22T09:40:40;11.45;;;3.03;;
37051;SDS011;22964;52.272;13.356;2023-02-22T09:48:59;14.45;;;3.47;;
37051;SDS011;22964;52.272;13.356;2023-02-22T09:51:33;14.48;;;3.67;;
37051;SDS011;22964;52.272;13.356;2023-02-22T09:54:09;11.23;;;3.20;;
37051;SDS011;22964;52.272;13.356;2023-02-22T09:56:42;15.55;;;3.28;;
37051;SDS011;22964;52.272;13.356;2023-02-22T09:59:10;11.32;;;2.70;;
37051;SDS011;22964;52.272;13.356;2023-02-22T10:01:47;13.00;;;2.75;;
37051;SDS011;22964;52.272;13.356;2023-02-22T10:04:21;11.18;;;3.00;;
37051;SDS011;22964;52.272;13.356;2023-02-22T10:09:42;15.10;;;2.72;;
37051;SDS011;22964;52.272;13.356;2023-02-22T10:20:56;16.95;;;3.33;;
37051;SDS011;22964;52.272;13.356;2023-02-22T10:23:27;10.70;;;2.92;;
37051;SDS011;22964;52.272;13.356;2023-02-22T10:26:12;15.45;;;3.92;;
37051;SDS011;22964;52.272;13.356;2023-02-22T10:31:24;12.00;;;3.05;;
37051;SDS011;22964;52.272;13.356;2023-02-22T10:33:59;11.98;;;3.40;;
37051;SDS011;22964;52.272;13.356;2023-02-22T10:39:42;10.80;;;3.15;;
37051;SDS011;22964;52.272;13.356;2023-02-22T10:42:10;12.75;;;2.60;;
37051;SDS011;22964;52.272;13.356;2023-02-22T10:44:37;10.45;;;2.60;;
37051;SDS011;22964;52.272;13.356;2023-02-22T10:47:05;9.52;;;2.70;;
37051;SDS011;22964;52.272;13.356;2023-02-22T10:49:36;7.57;;;2.38;;
37051;SDS011;22964;52.272;13.356;2023-02-22T10:55:13;14.15;;;2.72;;
37051;SDS011;22964;52.272;13.356;2023-02-22T10:57:40;8.82;;;2.45;;
37051;SDS011;22964;52.272;13.356;2023-02-22T11:00:21;11.02;;;2.15;;
37051;SDS011;22964;52.272;13.356;2023-02-22T11:02:57;10.45;;;2.30;;
37051;SDS011;22964;52.272;13.356;2023-02-22T11:05:46;10.73;;;2.47;;
37051;SDS011;22964;52.272;13.356;2023-02-22T11:10:45;9.52;;;1.90;;
37051;SDS011;22964;52.272;13.356;2023-02-22T11:13:32;9.10;;;1.88;;
37051;SDS011;22964;52.272;13.356;2023-02-22T11:18:59;13.20;;;2.35;;
37051;SDS011;22964;52.272;13.356;2023-02-22T11:21:31;10.13;;;2.40;;
37051;SDS011;22964;52.272;13.356;2023-02-22T11:24:02;10.48;;;2.22;;
37051;SDS011;22964;52.272;13.356;2023-02-22T11:26:36;11.77;;;2.33;;
37051;SDS011;22964;52.272;13.356;2023-02-22T11:29:17;9.80;;;2.13;;
37051;SDS011;22964;52.272;13.356;2023-02-22T11:31:46;11.90;;;2.30;;
37051;SDS011;22964;52.272;13.356;2023-02-22T11:34:27;13.27;;;2.30;;
37051;SDS011;22964;52.272;13.356;2023-02-22T11:36:53;14.88;;;2.33;;
37051;SDS011;22964;52.272;13.356;2023-02-22T11:39:26;7.35;;;1.77;;
37051;SDS011;22964;52.272;13.356;2023-02-22T11:41:56;9.25;;;2.05;;
37051;SDS011;22964;52.272;13.356;2023-02-22T11:44:26;8.85;;;1.77;;
37051;SDS011;22964;52.272;13.356;2023-02-22T11:46:54;10.38;;;2.25;;
37051;SDS011;22964;52.272;13.356;2023-02-22T11:49:35;12.30;;;2.30;;
37051;SDS011;22964;52.272;13.356;2023-02-22T12:00:44;9.38;;;2.05;;
37051;SDS011;22964;52.272;13.356;2023-02-22T12:17:27;12.50;;;2.20;;
37051;SDS011;22964;52.272;13.356;2023-02-22T12:19:52;10.75;;;2.17;;
37051;SDS011;22964;52.272;13.356;2023-02-22T12:22:33;8.70;;;2.10;;
37051;SDS011;22964;52.272;13.356;2023-02-22T12:28:06;10.27;;;2.22;;
37051;SDS011;22964;52.272;13.356;2023-02-22T12:30:40;13.20;;;2.22;;
37051;SDS011;22964;52.272;13.356;2023-02-22T12:33:20;11.68;;;2.42;;
37051;SDS011;22964;52.272;13.356;2023-02-22T12:35:53;8.63;;;1.85;;
37051;SDS011;22964;52.272;13.356;2023-02-22T12:38:41;10.93;;;1.90;;
37051;SDS011;22964;52.272;13.356;2023-02-22T12:41:30;10.80;;;2.00;;
37051;SDS011;22964;52.272;13.356;2023-02-22T12:46:39;11.80;;;2.28;;
37051;SDS011;22964;52.272;13.356;2023-02-22T12:57:18;12.65;;;2.35;;
37051;SDS011;22964;52.272;13.356;2023-02-22T12:59:54;10.18;;;2.10;;
37051;SDS011;22964;52.272;13.356;2023-02-22T13:04:59;13.45;;;2.08;;
37051;SDS011;22964;52.272;13.356;2023-02-22T13:20:45;8.95;;;1.80;;
37051;SDS011;22964;52.272;13.356;2023-02-22T13:28:35;9.30;;;1.70;;
37051;SDS011;22964;52.272;13.356;2023-02-22T13:31:23;8.10;;;1.85;;
37051;SDS011;22964;52.272;13.356;2023-02-22T13:47:22;9.80;;;1.88;;
37051;SDS011;22964;52.272;13.356;2023-02-22T13:52:53;7.82;;;1.98;;
37051;SDS011;22964;52.272;13.356;2023-02-22T13:55:22;11.23;;;2.30;;
37051;SDS011;22964;52.272;13.356;2023-02-22T13:58:04;8.13;;;1.80;;
37051;SDS011;22964;52.272;13.356;2023-02-22T14:13:18;8.63;;;1.75;;
37051;SDS011;22964;52.272;13.356;2023-02-22T14:18:24;8.98;;;1.80;;
37051;SDS011;22964;52.272;13.356;2023-02-22T14:29:18;8.55;;;1.98;;
37051;SDS011;22964;52.272;13.356;2023-02-22T14:34:12;11.25;;;2.08;;
37051;SDS011;22964;52.272;13.356;2023-02-22T14:39:33;7.13;;;1.70;;
37051;SDS011;22964;52.272;13.356;2023-02-22T14:44:53;8.20;;;1.90;;
37051;SDS011;22964;52.272;13.356;2023-02-22T14:47:46;11.23;;;2.10;;
37051;SDS011;22964;52.272;13.356;2023-02-22T14:53:05;8.82;;;1.95;;
37051;SDS011;22964;52.272;13.356;2023-02-22T14:55:42;8.80;;;2.00;;
37051;SDS011;22964;52.272;13.356;2023-02-22T14:58:19;12.18;;;2.13;;
37051;SDS011;22964;52.272;13.356;2023-02-22T15:00:48;5.93;;;1.70;;
37051;SDS011;22964;52.272;13.356;2023-02-22T15:03:27;11.35;;;2.30;;
37051;SDS011;22964;52.272;13.356;2023-02-22T15:08:31;8.57;;;1.90;;
37051;SDS011;22964;52.272;13.356;2023-02-22T15:10:58;10.68;;;1.80;;
37051;SDS011;22964;52.272;13.356;2023-02-22T15:13:26;11.18;;;2.03;;
37051;SDS011;22964;52.272;13.356;2023-02-22T15:16:01;7.60;;;2.10;;
37051;SDS011;22964;52.272;13.356;2023-02-22T15:21:15;10.65;;;2.40;;
37051;SDS011;22964;52.272;13.356;2023-02-22T15:23:59;10.45;;;2.30;;
37051;SDS011;22964;52.272;13.356;2023-02-22T15:29:12;6.77;;;2.07;;
37051;SDS011;22964;52.272;13.356;2023-02-22T15:31:40;10.15;;;2.10;;
37051;SDS011;22964;52.272;13.356;2023-02-22T15:36:39;7.25;;;1.92;;
37051;SDS011;22964;52.272;13.356;2023-02-22T15:39:06;9.23;;;2.40;;
37051;SDS011;22964;52.272;13.356;2023-02-22T15:41:59;8.32;;;1.90;;
37051;SDS011;22964;52.272;13.356;2023-02-22T15:44:38;11.23;;;2.70;;
37051;SDS011;22964;52.272;13.356;2023-02-22T15:47:06;12.10;;;2.20;;
37051;SDS011;22964;52.272;13.356;2023-02-22T15:49:41;14.82;;;2.30;;
37051;SDS011;22964;52.272;13.356;2023-02-22T15:52:17;8.27;;;2.22;;
37051;SDS011;22964;52.272;13.356;2023-02-22T15:54:46;12.07;;;2.72;;
37051;SDS011;22964;52.272;13.356;2023-02-22T15:57:22;8.98;;;2.13;;
37051;SDS011;22964;52.272;13.356;2023-02-22T15:59:50;11.02;;;2.20;;
37051;SDS011;22964;52.272;13.356;2023-02-22T16:02:27;9.32;;;2.13;;
37051;SDS011;22964;52.272;13.356;2023-02-22T16:05:00;16.20;;;2.97;;
37051;SDS011;22964;52.272;13.356;2023-02-22T16:07:32;11.00;;;2.40;;
37051;SDS011;22964;52.272;13.356;2023-02-22T16:10:00;8.70;;;2.00;;
37051;SDS011;22964;52.272;13.356;2023-02-22T16:12:33;10.75;;;2.58;;
37051;SDS011;22964;52.272;13.356;2023-02-22T16:14:59;8.35;;;2.00;;
37051;SDS011;22964;52.272;13.356;2023-02-22T16:17:35;11.95;;;2.40;;
37051;SDS011;22964;52.272;13.356;2023-02-22T16:22:38;8.25;;;2.45;;
37051;SDS011;22964;52.272;13.356;2023-02-22T16:27:46;8.93;;;2.20;;
37051;SDS011;22964;52.272;13.356;2023-02-22T16:32:45;14.53;;;2.87;;
37051;SDS011;22964;52.272;13.356;2023-02-22T16:35:15;10.07;;;2.47;;
37051;SDS011;22964;52.272;13.356;2023-02-22T16:37:47;12.52;;;2.70;;
37051;SDS011;22964;52.272;13.356;2023-02-22T16:43:02;12.75;;;2.55;;
37051;SDS011;22964;52.272;13.356;2023-02-22T16:45:33;9.90;;;2.47;;
37051;SDS011;22964;52.272;13.356;2023-02-22T16:48:00;7.57;;;2.10;;
37051;SDS011;22964;52.272;13.356;2023-02-22T16:50:29;8.57;;;2.33;;
37051;SDS011;22964;52.272;13.356;2023-02-22T16:52:54;8.80;;;2.05;;
37051;SDS011;22964;52.272;13.356;2023-02-22T16:55:22;10.32;;;2.65;;
37051;SDS011;22964;52.272;13.356;2023-02-22T16:57:49;12.60;;;2.63;;
37051;SDS011;22964;52.272;13.356;2023-02-22T17:00:16;8.40;;;2.45;;
37051;SDS011;22964;52.272;13.356;2023-02-22T17:02:59;11.85;;;2.53;;
37051;SDS011;22964;52.272;13.356;2023-02-22T17:05:30;9.50;;;2.50;;
37051;SDS011;22964;52.272;13.356;2023-02-22T17:08:00;6.75;;;2.08;;
37051;SDS011;22964;52.272;13.356;2023-02-22T17:10:29;8.60;;;2.83;;
37051;SDS011;22964;52.272;13.356;2023-02-22T17:12:55;12.13;;;2.50;;
37051;SDS011;22964;52.272;13.356;2023-02-22T17:15:23;10.38;;;2.90;;
37051;SDS011;22964;52.272;13.356;2023-02-22T17:17:51;11.80;;;2.63;;
37051;SDS011;22964;52.272;13.356;2023-02-22T17:20:18;10.05;;;2.55;;
37051;SDS011;22964;52.272;13.356;2023-02-22T17:23:01;10.93;;;2.60;;
37051;SDS011;22964;52.272;13.356;2023-02-22T17:25:30;9.55;;;2.50;;
37051;SDS011;22964;52.272;13.356;2023-02-22T17:28:12;9.52;;;2.50;;
37051;SDS011;22964;52.272;13.356;2023-02-22T17:30:38;9.68;;;2.33;;
37051;SDS011;22964;52.272;13.356;2023-02-22T17:33:06;11.57;;;2.97;;
37051;SDS011;22964;52.272;13.356;2023-02-22T17:35:35;8.98;;;2.70;;
37051;SDS011;22964;52.272;13.356;2023-02-22T17:38:03;13.30;;;2.33;;
37051;SDS011;22964;52.272;13.356;2023-02-22T17:40:33;11.98;;;2.38;;
37051;SDS011;22964;52.272;13.356;2023-02-22T17:43:00;9.18;;;2.58;;
37051;SDS011;22964;52.272;13.356;2023-02-22T17:45:26;11.20;;;2.30;;
37051;SDS011;22964;52.272;13.356;2023-02-22T17:47:53;9.70;;;2.30;;
37051;SDS011;22964;52.272;13.356;2023-02-22T17:50:19;6.97;;;2.10;;
37051;SDS011;22964;52.272;13.356;2023-02-22T17:52:46;9.98;;;2.60;;
37051;SDS011;22964;52.272;13.356;2023-02-22T17:55:15;9.90;;;2.75;;
37051;SDS011;22964;52.272;13.356;2023-02-22T17:57:43;8.55;;;2.33;;
37051;SDS011;22964;52.272;13.356;2023-02-22T18:00:13;10.13;;;2.80;;
37051;SDS011;22964;52.272;13.356;2023-02-22T18:02:47;11.32;;;2.75;;